Time;durP1;ratioP1;P1;durP2;ratioP2;P2;SDS_P1;SDS_P2;PMS_P1;PMS_P2;Temp;Humidity;BMP_temperature;BMP_pressure;BME280_temperature;BME280_humidity;BME280_pressure;Samples;Min_cycle;Max_cycle;Signal;HPM_P1;HPM_P2
2023/06/02 00:01:09;;;;;;;10.82;6.95;;;20.40;60.90;;;;;;4997815;28;20022;-64
2023/06/02 00:03:37;;;;;;;8.50;5.65;;;20.50;60.90;;;;;;4997106;28;20491;-65
2023/06/02 00:06:09;;;;;;;9.98;6.90;;;20.40;61.00;;;;;;4997589;28;20026;-64
2023/06/02 00:08:38;;;;;;;8.77;6.28;;;20.40;61.10;;;;;;4997555;28;20034;-64
2023/06/02 00:11:05;;;;;;;10.23;7.03;;;20.40;61.30;;;;;;4997365;28;20033;-65
2023/06/02 00:13:32;;;;;;;11.27;6.82;;;20.40;61.90;;;;;;4997609;28;20035;-65
2023/06/02 00:15:59;;;;;;;11.80;6.93;;;20.30;61.70;;;;;;4997286;28;20037;-65
2023/06/02 00:18:25;;;;;;;10.35;7.18;;;20.30;61.40;;;;;;4996981;28;20034;-65
2023/06/02 00:20:52;;;;;;;10.20;6.93;;;20.30;61.30;;;;;;4997493;28;20351;-64
2023/06/02 00:23:18;;;;;;;9.75;6.82;;;20.30;61.30;;;;;;4997069;28;20026;-65
2023/06/02 00:25:45;;;;;;;10.80;6.72;;;20.30;61.10;;;;;;4997213;28;20033;-64
2023/06/02 00:28:11;;;;;;;11.32;7.70;;;20.30;61.50;;;;;;4997047;28;20030;-64
2023/06/02 00:30:37;;;;;;;14.25;9.05;;;20.20;61.60;;;;;;4997084;28;20467;-64
2023/06/02 00:33:04;;;;;;;23.25;12.65;;;20.20;61.50;;;;;;4996954;28;20030;-64
2023/06/02 00:35:30;;;;;;;25.00;14.00;;;20.20;61.40;;;;;;4996099;28;20050;-64
2023/06/02 00:37:57;;;;;;;15.80;9.15;;;20.10;61.50;;;;;;4996819;28;20038;-64
2023/06/02 00:40:23;;;;;;;13.30;8.75;;;20.20;61.50;;;;;;4997153;28;20034;-64
2023/06/02 00:42:49;;;;;;;13.60;8.18;;;20.10;61.50;;;;;;4997010;28;20041;-64
2023/06/02 00:45:16;;;;;;;13.80;7.38;;;20.10;61.70;;;;;;4996674;28;20022;-64
2023/06/02 00:47:42;;;;;;;10.88;6.78;;;20.00;61.80;;;;;;4996410;28;20034;-64
2023/06/02 00:50:08;;;;;;;10.30;6.57;;;20.00;62.00;;;;;;4996868;28;20056;-64
2023/06/02 00:52:34;;;;;;;11.05;6.32;;;20.00;62.00;;;;;;4996634;28;20041;-64
2023/06/02 00:55:04;;;;;;;10.55;6.40;;;19.90;62.00;;;;;;4996570;28;20101;-64
2023/06/02 00:57:33;;;;;;;8.85;6.13;;;19.90;62.10;;;;;;4996392;28;20034;-64
2023/06/02 01:00:00;;;;;;;9.20;6.60;;;19.90;62.30;;;;;;4996392;28;20562;-64
2023/06/02 01:02:26;;;;;;;10.40;6.28;;;19.80;62.40;;;;;;4995901;28;20034;-64
2023/06/02 01:04:57;;;;;;;8.70;6.22;;;19.80;62.60;;;;;;4996405;28;20482;-64
2023/06/02 01:07:25;;;;;;;8.70;6.20;;;19.70;62.70;;;;;;4996314;28;20396;-64
2023/06/02 01:09:54;;;;;;;9.75;6.43;;;19.70;62.90;;;;;;4996240;28;20018;-64
2023/06/02 01:12:22;;;;;;;9.65;6.63;;;19.70;63.20;;;;;;4996104;28;20041;-64
2023/06/02 01:14:48;;;;;;;11.07;6.93;;;19.70;63.70;;;;;;4996118;28;20447;-64
2023/06/02 01:17:17;;;;;;;11.05;7.88;;;19.60;63.70;;;;;;4995759;28;20072;-64
2023/06/02 01:19:49;;;;;;;11.65;8.05;;;19.60;63.80;;;;;;4996087;28;20022;-63
2023/06/02 01:22:23;;;;;;;10.43;7.25;;;19.60;64.50;;;;;;4995919;28;20077;-63
2023/06/02 01:24:50;;;;;;;13.20;8.55;;;19.50;64.40;;;;;;4996313;28;20027;-63
2023/06/02 01:27:16;;;;;;;13.20;9.23;;;19.50;64.80;;;;;;4995888;28;20030;-63
2023/06/02 01:29:45;;;;;;;10.55;7.97;;;19.50;64.80;;;;;;4995681;28;20022;-63
2023/06/02 01:32:19;;;;;;;13.25;8.63;;;19.40;65.00;;;;;;4995751;28;20034;-64
2023/06/02 01:34:51;;;;;;;11.70;8.57;;;19.40;65.40;;;;;;4995972;28;20324;-64
2023/06/02 01:37:19;;;;;;;10.45;7.05;;;19.40;65.30;;;;;;4996031;28;20067;-65
2023/06/02 01:39:47;;;;;;;10.18;6.90;;;19.40;65.60;;;;;;4995803;28;20463;-64
2023/06/02 01:42:15;;;;;;;10.55;6.97;;;19.40;65.20;;;;;;4994703;28;20478;-64
2023/06/02 01:44:42;;;;;;;10.57;7.13;;;19.40;65.30;;;;;;4995499;28;20391;-64
2023/06/02 01:47:09;;;;;;;9.75;7.13;;;19.40;65.40;;;;;;4995698;28;20356;-64
2023/06/02 01:49:35;;;;;;;10.73;7.30;;;19.40;65.60;;;;;;4995743;28;20022;-64
2023/06/02 01:52:02;;;;;;;11.65;7.85;;;19.40;65.90;;;;;;4995541;28;20037;-64
2023/06/02 01:54:28;;;;;;;10.57;7.75;;;19.30;65.90;;;;;;4995533;28;20112;-63
2023/06/02 01:56:54;;;;;;;9.48;6.93;;;19.30;65.70;;;;;;4994626;28;20035;-63
2023/06/02 01:59:20;;;;;;;10.93;7.20;;;19.40;65.80;;;;;;4995244;28;20454;-64
2023/06/02 02:01:46;;;;;;;12.60;7.40;;;19.30;65.60;;;;;;4995747;28;20026;-64
2023/06/02 02:04:12;;;;;;;12.82;9.05;;;19.40;65.50;;;;;;4994763;28;20054;-63
2023/06/02 02:06:39;;;;;;;10.27;7.25;;;19.40;65.50;;;;;;4995567;28;20029;-63
2023/06/02 02:09:07;;;;;;;13.45;8.57;;;19.40;65.50;;;;;;4995391;28;20038;-63
2023/06/02 02:11:34;;;;;;;15.10;8.38;;;19.40;65.40;;;;;;4994468;28;20026;-64
2023/06/02 02:14:04;;;;;;;11.50;7.20;;;19.40;65.40;;;;;;4995058;28;20046;-68
2023/06/02 02:16:30;;;;;;;13.15;8.13;;;19.30;65.20;;;;;;4995650;28;20026;-68
2023/06/02 02:18:58;;;;;;;14.60;8.55;;;19.30;65.10;;;;;;4995261;28;20022;-69
2023/06/02 02:21:25;;;;;;;11.98;8.25;;;19.30;65.00;;;;;;4995307;28;20022;-68
2023/06/02 02:23:52;;;;;;;12.93;7.78;;;19.30;65.10;;;;;;4995150;28;20452;-68
2023/06/02 02:26:18;;;;;;;14.57;9.63;;;19.30;65.10;;;;;;4995274;28;20033;-68
2023/06/02 02:28:45;;;;;;;13.48;9.50;;;19.30;65.10;;;;;;4995060;28;20030;-69
2023/06/02 02:31:11;;;;;;;16.48;11.15;;;19.30;65.50;;;;;;4995195;28;20281;-68
2023/06/02 02:33:38;;;;;;;11.18;8.20;;;19.30;65.70;;;;;;4994099;28;20136;-69
2023/06/02 02:36:05;;;;;;;10.98;7.40;;;19.20;65.70;;;;;;4995366;28;20124;-68
2023/06/02 02:38:31;;;;;;;13.05;7.68;;;19.30;65.50;;;;;;4995056;28;20030;-70
2023/06/02 02:40:57;;;;;;;11.05;7.85;;;19.20;65.50;;;;;;4995717;28;20030;-70
2023/06/02 02:43:23;;;;;;;12.20;7.90;;;19.20;65.50;;;;;;4996104;28;20041;-70
2023/06/02 02:45:48;;;;;;;11.95;8.05;;;19.20;65.60;;;;;;4996899;28;20019;-69
2023/06/02 02:48:14;;;;;;;11.93;8.63;;;19.10;65.70;;;;;;4996429;28;20285;-69
2023/06/02 02:50:40;;;;;;;13.88;8.13;;;19.10;65.80;;;;;;4995239;28;20081;-69
2023/06/02 02:53:06;;;;;;;11.75;8.60;;;19.00;65.80;;;;;;4994996;28;20088;-69
2023/06/02 02:55:33;;;;;;;11.02;7.70;;;19.10;66.00;;;;;;4995034;28;20036;-69
2023/06/02 02:58:02;;;;;;;14.30;7.85;;;19.10;66.20;;;;;;4994625;28;20339;-70
2023/06/02 03:00:28;;;;;;;14.32;7.90;;;19.00;66.20;;;;;;4995014;28;20403;-69
2023/06/02 03:02:56;;;;;;;10.98;8.30;;;19.00;66.50;;;;;;4994556;28;20122;-69
2023/06/02 03:05:22;;;;;;;10.95;7.03;;;18.90;66.60;;;;;;4994883;28;20049;-69
2023/06/02 03:07:49;;;;;;;11.38;7.75;;;18.90;66.50;;;;;;4995129;28;20030;-69
2023/06/02 03:10:15;;;;;;;11.23;7.72;;;18.90;66.60;;;;;;4994800;28;20467;-69
2023/06/02 03:12:41;;;;;;;11.73;7.70;;;18.90;66.60;;;;;;4994634;28;20386;-70
2023/06/02 03:15:08;;;;;;;10.52;7.38;;;18.90;66.70;;;;;;4994744;28;20424;-69
2023/06/02 03:17:34;;;;;;;11.10;7.22;;;18.90;66.70;;;;;;4996973;28;20027;-69
2023/06/02 03:20:00;;;;;;;10.35;7.40;;;18.80;66.80;;;;;;4998319;28;20076;-69
2023/06/02 03:22:28;;;;;;;12.25;8.73;;;18.80;66.80;;;;;;4998287;28;20023;-69
2023/06/02 03:24:54;;;;;;;10.25;7.82;;;18.80;67.20;;;;;;4998316;28;20026;-70
2023/06/02 03:27:20;;;;;;;11.40;7.32;;;18.80;67.30;;;;;;4997978;28;20359;-69
2023/06/02 03:29:46;;;;;;;13.00;8.55;;;18.80;67.20;;;;;;4998197;28;20023;-69
2023/06/02 03:32:12;;;;;;;11.20;7.07;;;18.70;67.40;;;;;;4998046;28;20034;-69
2023/06/02 03:34:39;;;;;;;9.20;6.05;;;18.70;66.90;;;;;;4998101;28;20172;-69
2023/06/02 03:37:08;;;;;;;9.45;6.65;;;18.80;66.90;;;;;;4997966;28;20042;-69
2023/06/02 03:39:34;;;;;;;9.27;6.57;;;18.80;66.60;;;;;;4998006;28;20057;-69
2023/06/02 03:42:00;;;;;;;9.23;6.07;;;18.80;66.70;;;;;;4997740;28;20037;-69
2023/06/02 03:44:26;;;;;;;8.98;6.40;;;18.80;66.50;;;;;;4997868;28;20026;-69
2023/06/02 03:46:51;;;;;;;9.70;6.13;;;18.80;66.40;;;;;;4997922;28;20040;-69
2023/06/02 03:49:17;;;;;;;11.60;6.68;;;18.80;66.40;;;;;;4997855;28;20030;-69
2023/06/02 03:51:43;;;;;;;10.25;6.45;;;18.90;66.30;;;;;;4997773;28;20359;-69
2023/06/02 03:54:09;;;;;;;9.32;6.05;;;18.90;66.40;;;;;;4997748;28;20026;-69
2023/06/02 03:56:35;;;;;;;9.18;6.25;;;18.90;66.30;;;;;;4997462;28;20018;-69
2023/06/02 03:59:02;;;;;;;9.00;6.13;;;18.90;66.40;;;;;;4997510;28;20039;-69
2023/06/02 04:01:28;;;;;;;11.18;6.50;;;19.00;66.40;;;;;;4997527;28;20026;-69
2023/06/02 04:03:54;;;;;;;10.65;6.72;;;19.00;66.40;;;;;;4997215;28;20375;-69
2023/06/02 04:06:21;;;;;;;9.27;5.70;;;19.00;66.30;;;;;;4997558;28;20023;-69
2023/06/02 04:08:47;;;;;;;7.63;5.75;;;19.10;66.20;;;;;;4997433;28;20038;-69
2023/06/02 04:11:13;;;;;;;8.88;5.90;;;19.10;66.20;;;;;;4997153;28;20033;-69
2023/06/02 04:13:39;;;;;;;9.80;6.28;;;19.20;66.10;;;;;;4997312;28;20030;-69
2023/06/02 04:16:07;;;;;;;8.90;6.63;;;19.30;65.80;;;;;;4997290;28;20183;-69
2023/06/02 04:18:36;;;;;;;9.48;6.32;;;19.30;65.90;;;;;;4997130;28;20038;-69
2023/06/02 04:21:02;;;;;;;9.70;6.22;;;19.40;65.80;;;;;;4997259;28;20053;-69
2023/06/02 04:23:28;;;;;;;10.68;6.70;;;19.40;65.90;;;;;;4997140;28;20035;-69
2023/06/02 04:25:55;;;;;;;13.02;7.63;;;19.60;65.90;;;;;;4996871;28;20018;-69
2023/06/02 04:28:21;;;;;;;11.15;7.43;;;19.70;65.80;;;;;;4997030;28;20042;-69
2023/06/02 04:30:52;;;;;;;10.88;7.72;;;19.90;65.70;;;;;;4997004;28;20073;-69
2023/06/02 04:33:18;;;;;;;10.90;8.38;;;20.00;65.50;;;;;;4997086;28;20034;-69
2023/06/02 04:35:44;;;;;;;13.18;7.97;;;20.20;65.10;;;;;;4997335;28;20053;-69
2023/06/02 04:38:11;;;;;;;13.00;8.63;;;20.40;64.90;;;;;;4996551;28;20444;-69
2023/06/02 04:40:38;;;;;;;10.80;7.80;;;20.50;64.70;;;;;;4996803;28;20038;-69
2023/06/02 04:43:05;;;;;;;14.30;9.52;;;20.80;64.50;;;;;;4996885;28;20046;-69
2023/06/02 04:45:31;;;;;;;12.60;8.15;;;21.00;64.00;;;;;;4996752;28;20096;-69
2023/06/02 04:47:57;;;;;;;17.00;8.93;;;21.30;63.60;;;;;;4996935;28;20040;-69
2023/06/02 04:50:23;;;;;;;12.23;8.32;;;21.80;63.30;;;;;;4996670;28;20336;-69
2023/06/02 04:52:50;;;;;;;11.15;8.80;;;22.60;62.50;;;;;;4996375;28;20058;-69
2023/06/02 04:55:16;;;;;;;12.35;8.70;;;23.50;61.10;;;;;;4996891;28;20100;-70
2023/06/02 04:57:42;;;;;;;11.43;8.15;;;24.40;59.60;;;;;;4996508;28;20026;-69
2023/06/02 05:00:09;;;;;;;12.30;8.52;;;25.40;57.90;;;;;;4996482;28;20026;-69
2023/06/02 05:02:35;;;;;;;11.60;8.70;;;26.30;56.00;;;;;;4996388;28;20030;-69
2023/06/02 05:05:02;;;;;;;11.48;8.25;;;27.10;54.60;;;;;;4996460;28;20384;-69
2023/06/02 05:07:28;;;;;;;13.82;10.13;;;27.90;53.10;;;;;;4996090;28;20045;-70
2023/06/02 05:09:55;;;;;;;13.50;8.90;;;28.60;51.70;;;;;;4996583;28;20105;-69
2023/06/02 05:12:21;;;;;;;12.70;9.13;;;29.40;50.20;;;;;;4996328;28;20376;-70
2023/06/02 05:14:47;;;;;;;13.55;9.00;;;30.10;48.60;;;;;;4996541;28;20034;-70
2023/06/02 05:17:14;;;;;;;11.00;8.93;;;30.70;47.50;;;;;;4996038;28;20057;-70
2023/06/02 05:19:42;;;;;;;15.55;8.63;;;31.40;46.20;;;;;;4996162;28;20022;-70
2023/06/02 05:22:08;;;;;;;10.52;7.18;;;32.00;44.80;;;;;;4995835;28;20031;-70
2023/06/02 05:24:34;;;;;;;12.40;7.80;;;32.60;43.90;;;;;;4996050;28;20507;-70
2023/06/02 05:27:00;;;;;;;9.73;7.90;;;33.10;43.10;;;;;;4995979;28;20102;-70
2023/06/02 05:29:26;;;;;;;10.43;6.82;;;33.50;42.40;;;;;;4995860;28;20026;-70
2023/06/02 05:31:52;;;;;;;10.50;7.35;;;33.90;41.90;;;;;;4995899;28;20395;-70
2023/06/02 05:34:17;;;;;;;9.90;7.32;;;34.10;41.20;;;;;;4995780;28;20105;-70
2023/06/02 05:36:43;;;;;;;9.07;6.40;;;34.20;40.70;;;;;;4995561;28;20060;-70
2023/06/02 05:39:10;;;;;;;9.38;6.57;;;34.50;40.40;;;;;;4995160;28;20027;-70
2023/06/02 05:41:36;;;;;;;9.60;6.60;;;35.00;40.00;;;;;;4995990;28;20045;-70
2023/06/02 05:44:01;;;;;;;8.80;6.85;;;35.60;39.30;;;;;;4995660;28;20026;-70
2023/06/02 05:46:27;;;;;;;8.60;6.28;;;36.20;38.60;;;;;;4995783;28;20414;-70
2023/06/02 05:48:53;;;;;;;9.60;6.05;;;36.70;37.60;;;;;;4994757;28;20073;-65
2023/06/02 05:51:19;;;;;;;8.10;5.75;;;37.10;37.10;;;;;;4995461;28;20117;-65
2023/06/02 05:53:49;;;;;;;7.35;5.90;;;37.50;36.50;;;;;;4995570;28;20030;-65
2023/06/02 05:56:16;;;;;;;8.57;6.15;;;37.90;35.80;;;;;;4994637;28;20474;-70
2023/06/02 05:58:43;;;;;;;8.05;5.25;;;38.20;35.30;;;;;;4994222;28;20042;-70
2023/06/02 06:01:09;;;;;;;8.32;5.75;;;38.60;35.00;;;;;;4995655;28;20018;-70
2023/06/02 06:03:35;;;;;;;6.65;5.50;;;39.20;34.50;;;;;;4994942;28;20531;-70
2023/06/02 06:06:02;;;;;;;7.25;5.40;;;39.50;33.10;;;;;;4993486;28;20026;-66
2023/06/02 06:08:28;;;;;;;16.20;6.03;;;39.70;32.80;;;;;;4995688;28;20053;-62
2023/06/02 06:10:54;;;;;;;8.32;5.05;;;39.90;32.30;;;;;;4995512;28;20384;-67
2023/06/02 06:13:20;;;;;;;8.40;5.05;;;40.00;31.60;;;;;;4995316;28;20026;-70
2023/06/02 06:15:47;;;;;;;8.27;5.20;;;40.00;31.40;;;;;;4995396;28;20045;-68
2023/06/02 06:18:14;;;;;;;7.85;5.00;;;40.20;31.00;;;;;;4995515;28;20058;-70
2023/06/02 06:20:43;;;;;;;6.28;4.68;;;40.40;30.80;;;;;;4995071;28;20484;-65
2023/06/02 06:23:10;;;;;;;6.53;4.38;;;40.60;30.30;;;;;;4995181;28;20041;-65
2023/06/02 06:25:36;;;;;;;9.75;5.22;;;40.90;29.90;;;;;;4995504;28;20403;-65
2023/06/02 06:28:02;;;;;;;5.85;4.93;;;40.90;27.40;;;;;;4995510;28;20026;-65
2023/06/02 06:30:28;;;;;;;6.60;4.50;;;40.90;28.10;;;;;;4995205;28;20037;-65
2023/06/02 06:32:54;;;;;;;6.70;5.30;;;40.70;28.20;;;;;;4995450;28;20061;-65
2023/06/02 06:35:20;;;;;;;7.68;4.90;;;40.90;27.90;;;;;;4994983;28;20035;-65
2023/06/02 06:37:46;;;;;;;6.22;4.82;;;40.80;27.60;;;;;;4995354;28;20113;-65
2023/06/02 06:40:12;;;;;;;6.68;4.88;;;40.90;27.60;;;;;;4994305;28;20023;-65
2023/06/02 06:42:38;;;;;;;6.82;4.78;;;40.30;27.70;;;;;;4995086;28;20034;-65
2023/06/02 06:45:04;;;;;;;7.53;5.22;;;39.50;28.40;;;;;;4995137;28;20356;-64
2023/06/02 06:47:30;;;;;;;7.72;4.90;;;38.40;28.80;;;;;;4995138;28;20106;-64
2023/06/02 06:49:56;;;;;;;7.78;5.35;;;37.00;30.50;;;;;;4994800;28;20073;-64
2023/06/02 06:52:22;;;;;;;7.78;5.35;;;36.00;31.90;;;;;;4998604;28;20351;-64
2023/06/02 06:54:48;;;;;;;8.60;5.35;;;35.00;32.90;;;;;;4998785;28;20158;-64
2023/06/02 06:57:16;;;;;;;8.77;5.13;;;34.30;34.00;;;;;;4998780;28;20375;-64
2023/06/02 06:59:42;;;;;;;6.57;4.72;;;33.70;34.90;;;;;;4998721;28;20026;-64
2023/06/02 07:02:08;;;;;;;7.80;5.13;;;33.40;35.60;;;;;;4998340;28;20062;-65
2023/06/02 07:04:34;;;;;;;6.25;4.82;;;33.20;35.90;;;;;;4998170;28;20046;-64
2023/06/02 07:07:00;;;;;;;6.00;5.07;;;33.00;36.20;;;;;;4998676;28;20041;-65
2023/06/02 07:09:26;;;;;;;9.65;5.88;;;32.90;36.60;;;;;;4998718;28;20023;-64
2023/06/02 07:11:52;;;;;;;7.72;5.80;;;32.90;36.90;;;;;;4993494;28;20448;-62
2023/06/02 07:14:17;;;;;;;7.55;5.85;;;32.80;37.10;;;;;;4998411;28;20030;-64
2023/06/02 07:16:48;;;;;;;8.32;5.78;;;32.70;37.30;;;;;;4998420;28;20043;-64
2023/06/02 07:19:14;;;;;;;7.93;6.30;;;32.40;37.80;;;;;;4997998;28;20125;-65
2023/06/02 07:21:40;;;;;;;8.32;5.82;;;32.20;38.10;;;;;;4998375;28;20084;-68
2023/06/02 07:24:06;;;;;;;8.98;5.93;;;32.00;38.30;;;;;;4998175;28;20026;-64
2023/06/02 07:26:32;;;;;;;8.93;6.05;;;31.90;38.60;;;;;;4998299;28;20026;-64
2023/06/02 07:28:58;;;;;;;7.50;5.32;;;31.90;38.80;;;;;;4998264;28;20105;-64
2023/06/02 07:31:24;;;;;;;7.25;5.63;;;31.90;38.80;;;;;;4998227;28;20030;-64
2023/06/02 07:33:50;;;;;;;7.90;5.47;;;32.00;38.50;;;;;;4997864;28;20462;-64
2023/06/02 07:36:16;;;;;;;8.13;5.65;;;32.10;38.20;;;;;;4997153;28;20120;-64
2023/06/02 07:38:43;;;;;;;9.80;6.63;;;32.20;38.30;;;;;;4998069;28;20105;-64
2023/06/02 07:41:09;;;;;;;7.40;5.60;;;32.30;38.10;;;;;;4997954;28;20030;-64
2023/06/02 07:43:35;;;;;;;8.57;5.80;;;32.20;37.80;;;;;;4997263;28;20023;-64
2023/06/02 07:46:03;;;;;;;7.82;5.18;;;32.10;37.90;;;;;;4997911;28;20341;-64
2023/06/02 07:48:29;;;;;;;9.27;6.35;;;32.00;38.10;;;;;;4997595;28;20312;-64
2023/06/02 07:50:55;;;;;;;7.63;5.68;;;32.00;38.20;;;;;;4997885;28;20105;-64
2023/06/02 07:53:21;;;;;;;8.63;5.25;;;32.00;38.20;;;;;;4997747;28;20088;-64
2023/06/02 07:55:47;;;;;;;8.88;5.13;;;32.00;38.30;;;;;;4998005;28;20482;-64
2023/06/02 07:58:13;;;;;;;8.20;5.35;;;32.00;38.30;;;;;;4997698;28;20022;-64
2023/06/02 08:00:39;;;;;;;6.68;5.22;;;32.10;38.30;;;;;;4997696;28;20057;-64
2023/06/02 08:03:05;;;;;;;8.23;5.15;;;32.20;38.40;;;;;;4996342;28;20100;-64
2023/06/02 08:05:31;;;;;;;7.63;5.35;;;32.20;38.40;;;;;;4997601;28;20050;-64
2023/06/02 08:07:57;;;;;;;6.35;4.90;;;32.30;38.20;;;;;;4997656;28;20026;-64
2023/06/02 08:10:22;;;;;;;6.82;5.32;;;32.30;38.20;;;;;;4997490;28;20026;-64
2023/06/02 08:12:48;;;;;;;8.75;6.63;;;32.30;38.20;;;;;;4997591;28;20041;-64
2023/06/02 08:15:14;;;;;;;9.02;6.53;;;32.30;38.20;;;;;;4997418;28;20053;-64
2023/06/02 08:17:40;;;;;;;8.63;5.75;;;32.20;38.30;;;;;;4997049;28;20105;-64
2023/06/02 08:20:07;;;;;;;7.65;5.90;;;32.20;38.60;;;;;;4997418;28;20061;-64
2023/06/02 08:22:34;;;;;;;7.13;5.40;;;32.20;38.60;;;;;;4997136;28;20065;-64
2023/06/02 08:25:00;;;;;;;7.88;5.10;;;32.20;38.70;;;;;;4997178;28;20030;-64
2023/06/02 08:27:27;;;;;;;8.30;6.53;;;32.20;38.60;;;;;;4997172;28;20455;-64
2023/06/02 08:29:53;;;;;;;9.95;6.43;;;32.20;38.30;;;;;;4997149;28;20519;-64
2023/06/02 08:32:24;;;;;;;7.97;6.15;;;32.00;38.60;;;;;;4996696;28;20101;-64
2023/06/02 08:34:50;;;;;;;10.27;6.15;;;31.90;38.30;;;;;;4997001;28;20154;-64
2023/06/02 08:37:21;;;;;;;9.73;5.50;;;31.80;38.60;;;;;;4996908;28;20464;-64
2023/06/02 08:39:48;;;;;;;8.55;5.28;;;31.70;38.80;;;;;;4997007;28;20033;-64
2023/06/02 08:42:15;;;;;;;8.38;5.65;;;31.80;38.70;;;;;;4997054;28;20050;-64
2023/06/02 08:44:43;;;;;;;8.40;5.72;;;31.90;38.50;;;;;;4996520;28;20388;-64
2023/06/02 08:47:11;;;;;;;7.25;5.18;;;31.90;38.40;;;;;;4996868;28;20037;-64
2023/06/02 08:49:43;;;;;;;7.55;5.50;;;31.80;38.50;;;;;;4996896;28;20049;-64
2023/06/02 08:52:15;;;;;;;8.57;5.03;;;31.80;38.10;;;;;;4996545;28;20032;-64
2023/06/02 08:54:42;;;;;;;6.50;4.70;;;31.70;38.30;;;;;;4996756;28;20300;-64
2023/06/02 08:57:16;;;;;;;7.65;5.30;;;31.80;38.40;;;;;;4996539;28;20257;-64
2023/06/02 08:59:46;;;;;;;8.45;4.65;;;31.90;38.30;;;;;;4996630;28;20026;-64
2023/06/02 09:02:13;;;;;;;6.38;4.72;;;31.90;38.20;;;;;;4996361;28;20050;-64
2023/06/02 09:04:40;;;;;;;5.43;4.22;;;31.90;38.20;;;;;;4996334;28;20424;-64
2023/06/02 09:07:19;;;;;;;6.75;4.78;;;32.00;38.20;;;;;;4996469;28;20034;-64
2023/06/02 09:09:51;;;;;;;6.10;4.40;;;32.00;38.10;;;;;;4996308;28;20486;-69
2023/06/02 09:12:18;;;;;;;5.13;4.28;;;32.20;38.20;;;;;;4996246;28;20019;-68
2023/06/02 09:14:46;;;;;;;6.97;4.55;;;32.20;38.20;;;;;;4995027;28;20027;-68
2023/06/02 09:17:30;;;;;;;7.45;5.10;;;32.10;38.20;;;;;;4996121;28;20022;-68
2023/06/02 09:19:58;;;;;;;;;;;32.10;38.00;;;;;;4996695;28;20097;-68
2023/06/02 09:22:24;;;;;;;7.43;4.40;;;32.10;38.00;;;;;;4996044;28;19916;-68
2023/06/02 09:24:53;;;;;;;6.65;4.80;;;32.20;38.20;;;;;;4996094;28;20398;-68
2023/06/02 09:27:20;;;;;;;6.20;4.50;;;32.20;37.80;;;;;;4996004;28;20018;-69
2023/06/02 09:29:48;;;;;;;7.10;4.40;;;32.20;38.00;;;;;;4994753;28;20026;-69
2023/06/02 09:32:17;;;;;;;5.90;4.60;;;32.20;38.20;;;;;;4995860;28;20065;-68
2023/06/02 09:34:45;;;;;;;6.60;4.32;;;32.20;37.90;;;;;;4996236;28;20072;-69
2023/06/02 09:37:13;;;;;;;8.43;4.50;;;32.30;38.00;;;;;;4995733;28;20118;-68
2023/06/02 09:39:52;;;;;;;6.03;4.50;;;32.30;38.10;;;;;;4995829;28;20394;-68
2023/06/02 09:42:23;;;;;;;6.82;4.90;;;32.40;38.00;;;;;;4995694;28;20042;-69
2023/06/02 09:45:04;;;;;;;6.30;4.90;;;32.40;38.00;;;;;;4995326;28;20363;-68
2023/06/02 09:47:40;;;;;;;6.45;4.72;;;32.40;37.90;;;;;;4982841;28;20038;-68
2023/06/02 09:50:08;;;;;;;6.82;4.80;;;32.40;37.80;;;;;;4976373;28;20022;-64
2023/06/02 09:52:34;;;;;;;7.22;5.60;;;32.40;37.80;;;;;;4976276;28;20034;-68
2023/06/02 09:55:09;;;;;;;6.97;5.00;;;32.40;37.80;;;;;;4976553;28;20072;-64
2023/06/02 09:57:36;;;;;;;6.65;4.72;;;32.20;37.70;;;;;;4973865;28;20491;-69
2023/06/02 10:00:03;;;;;;;6.80;4.60;;;32.20;38.10;;;;;;4974478;28;20027;-64
2023/06/02 10:02:28;;;;;;;7.03;4.55;;;32.20;38.00;;;;;;4973849;28;20458;-68
2023/06/02 10:04:54;;;;;;;7.38;4.88;;;32.20;38.00;;;;;;4974551;28;20094;-65
2023/06/02 10:07:32;;;;;;;7.22;5.15;;;32.20;37.60;;;;;;4974581;28;20030;-65
2023/06/02 10:10:10;;;;;;;6.47;4.90;;;32.10;37.80;;;;;;4974625;28;20031;-67
2023/06/02 10:12:59;;;;;;;6.55;4.53;;;31.90;37.60;;;;;;4974866;28;20085;-64
2023/06/02 10:15:49;;;;;;;6.78;4.85;;;31.90;37.70;;;;;;4976282;28;20097;-64
2023/06/02 10:18:46;;;;;;;6.72;4.90;;;31.90;37.60;;;;;;4975225;28;20046;-64
2023/06/02 10:21:15;;;;;;;5.63;4.47;;;31.90;37.70;;;;;;4976194;28;20027;-64
2023/06/02 10:23:55;;;;;;;7.97;5.10;;;31.90;37.90;;;;;;4975744;28;20034;-68
2023/06/02 10:27:03;;;;;;;5.57;4.25;;;31.90;37.60;;;;;;4977845;28;20054;-69
2023/06/02 10:29:32;;;;;;;6.95;5.38;;;31.90;37.70;;;;;;4979840;28;20117;-68
2023/06/02 10:31:58;;;;;;;8.07;4.50;;;31.90;37.90;;;;;;4979772;28;20044;-68
2023/06/02 10:34:56;;;;;;;6.88;4.43;;;31.90;38.00;;;;;;4979929;28;20031;-69
2023/06/02 10:37:23;;;;;;;6.25;4.50;;;31.90;37.70;;;;;;4979403;28;20182;-68
2023/06/02 10:39:52;;;;;;;9.48;5.70;;;32.00;37.90;;;;;;4979734;28;20034;-68
2023/06/02 10:42:23;;;;;;;8.35;5.10;;;32.10;37.80;;;;;;4979374;28;20023;-68
2023/06/02 10:44:52;;;;;;;8.20;5.55;;;32.00;37.50;;;;;;4980520;28;20027;-68
2023/06/02 10:47:17;;;;;;;6.28;4.55;;;32.00;37.40;;;;;;4980796;28;20011;-68
2023/06/02 10:49:59;;;;;;;6.75;5.20;;;32.00;37.70;;;;;;4980571;28;20101;-69
2023/06/02 10:52:26;;;;;;;7.03;5.38;;;32.10;37.50;;;;;;4979411;28;20027;-68
2023/06/02 10:55:07;;;;;;;5.93;4.85;;;32.10;37.70;;;;;;4979442;28;20456;-68
2023/06/02 10:57:52;;;;;;;8.07;5.32;;;32.00;37.80;;;;;;4979006;28;20420;-69
2023/06/02 11:00:35;;;;;;;6.72;5.05;;;32.10;38.20;;;;;;4979397;28;20116;-68
2023/06/02 11:03:17;;;;;;;7.40;5.55;;;32.20;37.90;;;;;;4979225;28;20051;-68
2023/06/02 11:05:44;;;;;;;8.68;6.03;;;32.20;37.80;;;;;;4979171;28;20047;-68
2023/06/02 11:08:14;;;;;;;7.70;5.90;;;32.10;37.30;;;;;;4979495;28;20026;-68
2023/06/02 11:11:00;;;;;;;8.18;5.70;;;32.00;37.40;;;;;;4978848;28;20035;-68
2023/06/02 11:13:27;;;;;;;7.97;5.20;;;31.90;37.70;;;;;;4979292;28;20149;-68
2023/06/02 11:15:58;;;;;;;8.43;5.05;;;31.70;37.80;;;;;;4979023;28;20063;-68
2023/06/02 11:18:33;;;;;;;7.88;6.13;;;31.60;38.10;;;;;;4978982;28;20113;-68
2023/06/02 11:21:14;;;;;;;9.65;6.05;;;31.60;38.60;;;;;;4978988;28;20440;-68
2023/06/02 11:23:44;;;;;;;9.15;6.32;;;31.60;38.90;;;;;;4979033;28;20027;-68
2023/06/02 11:26:15;;;;;;;9.40;6.72;;;31.60;38.90;;;;;;4978737;28;20195;-69
2023/06/02 11:28:42;;;;;;;7.53;5.13;;;31.60;39.10;;;;;;4979088;28;20125;-69
2023/06/02 11:31:18;;;;;;;6.57;5.35;;;31.50;39.20;;;;;;4978715;28;20040;-68
2023/06/02 11:33:49;;;;;;;7.93;5.63;;;31.50;39.10;;;;;;4978825;28;20023;-68
2023/06/02 11:36:24;;;;;;;10.40;5.70;;;31.50;39.00;;;;;;4977720;28;20043;-68
2023/06/02 11:38:50;;;;;;;7.63;5.50;;;31.50;38.90;;;;;;4976565;28;20038;-68
2023/06/02 11:41:21;;;;;;;7.40;5.68;;;31.60;38.70;;;;;;4978796;28;20031;-68
2023/06/02 11:43:50;;;;;;;7.82;5.85;;;31.60;38.80;;;;;;4978469;28;20038;-69
2023/06/02 11:46:18;;;;;;;9.00;5.95;;;31.60;39.00;;;;;;4978430;28;20035;-68
2023/06/02 11:48:45;;;;;;;8.88;5.40;;;31.60;39.10;;;;;;4978478;28;20073;-68
2023/06/02 11:51:13;;;;;;;7.57;5.20;;;31.70;39.20;;;;;;4978402;28;20035;-69
2023/06/02 11:53:47;;;;;;;8.07;5.47;;;31.80;39.20;;;;;;4978275;28;20027;-68
2023/06/02 11:56:14;;;;;;;9.15;5.82;;;32.00;39.10;;;;;;4977483;28;20359;-68
2023/06/02 11:58:44;;;;;;;9.90;6.18;;;32.00;38.90;;;;;;4978221;28;20038;-68
2023/06/02 12:01:14;;;;;;;5.75;4.35;;;32.10;38.60;;;;;;4978210;28;20356;-69
2023/06/02 12:03:53;;;;;;;9.32;5.75;;;32.10;38.90;;;;;;4977985;28;20043;-68
2023/06/02 12:06:19;;;;;;;7.50;5.93;;;32.10;38.70;;;;;;4978223;28;20031;-68
2023/06/02 12:08:46;;;;;;;12.43;7.13;;;32.10;38.60;;;;;;4976871;28;20034;-68
2023/06/02 12:11:18;;;;;;;8.30;5.78;;;32.10;38.40;;;;;;4978144;28;20066;-68
2023/06/02 12:14:04;;;;;;;7.57;5.78;;;32.20;38.00;;;;;;4978108;28;20022;-69
2023/06/02 12:16:31;;;;;;;7.50;5.40;;;32.10;38.10;;;;;;4977939;28;20035;-69
2023/06/02 12:19:21;;;;;;;8.20;5.05;;;32.20;38.20;;;;;;4978089;28;20034;-68
2023/06/02 12:21:54;;;;;;;7.15;5.13;;;32.20;38.50;;;;;;4977873;28;20045;-68
2023/06/02 12:24:28;;;;;;;8.20;5.68;;;32.20;38.30;;;;;;4977719;28;20027;-68
2023/06/02 12:26:54;;;;;;;7.53;5.45;;;32.10;38.10;;;;;;4976888;28;20027;-68
2023/06/02 12:29:21;;;;;;;7.18;4.93;;;32.10;38.00;;;;;;4977725;28;20038;-69
2023/06/02 12:31:54;;;;;;;6.45;4.85;;;32.10;38.00;;;;;;4977643;28;20486;-69
2023/06/02 12:34:20;;;;;;;5.88;4.38;;;32.10;38.00;;;;;;4977573;28;20101;-68
2023/06/02 12:36:46;;;;;;;8.68;4.72;;;32.10;38.10;;;;;;4977457;28;20126;-68
2023/06/02 12:39:12;;;;;;;8.18;5.28;;;32.20;38.20;;;;;;4977470;28;20062;-68
2023/06/02 12:41:39;;;;;;;5.90;4.78;;;32.20;38.00;;;;;;4977492;28;20356;-69
2023/06/02 12:44:05;;;;;;;6.10;4.78;;;32.30;37.90;;;;;;4977348;28;20330;-68
2023/06/02 12:46:31;;;;;;;8.10;5.38;;;32.40;37.30;;;;;;4977326;28;20352;-69
2023/06/02 12:48:58;;;;;;;7.80;5.15;;;32.40;37.30;;;;;;4977142;28;20081;-68